Zim Mumbai — P3BA7 — position and weather

sailwx.info

Track history (hours):
 
Tides and Currents Weather Stations Pressure Air Temp Water Temp Dewpoint Dewpoint Depression Visibility Wind Speed Wind Dir Waves Ship Positions

Zim Mumbai

Last reported at 2016-Jul-19 07:06 UTC. Time now 2016-Jul-25 02:23 UTC.
Position N 31°46' W 079°28'.

Length 195.7 m; beam 32.3 m; draft 11.5 m.

Type: Ship (hazmat cat B). MMSI: 212160000.

Date/timePositionNaut miles runAvg speedWind from/ knotsBaromVisibWave heightAir tempDewpointWater temp
2016-Jul-19 07:06N 31°46' W 079°28'5816.0
2016-Jul-19 03:29N 32°42' W 079°46'156 6.0
2016-Jul-18 01:33N 33°46' W 076°56'3314.9
2016-Jul-17 23:20N 34°09' W 076°27'1515.3
2016-Jul-17 22:21N 34°19' W 076°13'15412.0
2016-Jul-17 09:33N 36°52' W 075°52'1313.1
2016-Jul-17 08:33N 36°58' W 076°06'1111.3
2016-Jul-17 07:33N 36°57' W 076°20'4 4.0
2016-Jul-17 06:29N 36°53' W 076°21'0 0.0
2016-Jul-17 04:18N 36°53' W 076°21'0 0.0
2016-Jul-17 03:31N 36°53' W 076°21'0 0.0
2016-Jul-17 02:08N 36°53' W 076°21'0 0.0
2016-Jul-17 01:23N 36°53' W 076°21'0 0.0
2016-Jul-17 00:33N 36°53' W 076°21'0 0.0
2016-Jul-16 23:28N 36°53' W 076°21'0 0.0
2016-Jul-16 22:31N 36°53' W 076°21'0 0.0
2016-Jul-16 21:33N 36°53' W 076°21'13 6.2
2016-Jul-16 19:33N 36°59' W 076°07'1211.6
2016-Jul-16 18:33N 36°55' W 075°54'14 2.2
2016-Jul-16 12:12N 36°48' W 075°39'0 0.0
2016-Jul-16 11:26N 36°48' W 075°39'0 0.1
2016-Jul-16 09:21N 36°48' W 075°39'7 8.1
2016-Jul-16 08:32N 36°49' W 075°47'1313.2
2016-Jul-16 07:33N 36°57' W 075°59'1615.4
2016-Jul-16 06:33N 37°11' W 076°09'2914.5
2016-Jul-16 04:31N 37°40' W 076°09'1514.6
2016-Jul-16 03:31N 37°55' W 076°10'4615.0
2016-Jul-16 00:27N 38°39' W 076°25'1415.8
2016-Jul-15 23:33N 38°53' W 076°24'1414.4
2016-Jul-15 22:34N 39°08' W 076°24'1110.5
2016-Jul-15 21:33N 39°15' W 076°34'0 0.4
2016-Jul-15 20:29N 39°15' W 076°33'0 0.0
2016-Jul-15 19:28N 39°15' W 076°33'0 0.0
2016-Jul-15 18:32N 39°15' W 076°33'0 0.0
2016-Jul-15 17:32N 39°15' W 076°33'0 0.0
2016-Jul-15 16:32N 39°15' W 076°33'0 0.0
2016-Jul-15 15:32N 39°15' W 076°33'0 0.0
2016-Jul-15 14:28N 39°15' W 076°33'0 0.0
2016-Jul-15 13:28N 39°15' W 076°33'0 0.0
2016-Jul-15 12:33N 39°15' W 076°33'0 0.0
2016-Jul-15 11:33N 39°15' W 076°33'0 0.0
2016-Jul-15 10:31N 39°15' W 076°33'1 0.7
2016-Jul-15 09:33N 39°15' W 076°33'9 8.9
2016-Jul-15 08:33N 39°09' W 076°24'1514.7
2016-Jul-15 07:33N 38°54' W 076°24'1615.9
2016-Jul-15 06:33N 38°38' W 076°25'1615.8
2016-Jul-15 05:32N 38°23' W 076°20'1616.2
2016-Jul-15 04:31N 38°07' W 076°13'6215.1
2016-Jul-15 00:24N 37°05' W 076°06'1213.8
2016-Jul-14 23:33N 36°56' W 075°56'11713.0
2016-Jul-14 14:33N 38°20' W 074°13'1616.3
2016-Jul-14 13:33N 38°36' W 074°07'1716.0
2016-Jul-14 12:31N 38°52' W 074°02'1816.1
2016-Jul-14 11:25N 39°09' W 073°56'1415.4
2016-Jul-14 10:28N 39°24' W 073°54'1415.5
2016-Jul-14 09:34N 39°38' W 073°53'1615.6
2016-Jul-14 08:33N 39°53' W 073°51'3115.5
2016-Jul-14 06:33N 40°24' W 073°49'1211.8
2016-Jul-14 05:33N 40°32' W 074°01'9 8.8
2016-Jul-14 04:33N 40°39' W 074°08'3 2.6
2016-Jul-14 03:32N 40°41' W 074°09'0 0.0
2016-Jul-14 02:26N 40°41' W 074°09'0 0.0
2016-Jul-14 01:32N 40°41' W 074°09'0 0.0
2016-Jul-14 00:29N 40°41' W 074°09'0 0.0
2016-Jul-13 23:31N 40°41' W 074°09'0 0.0
2016-Jul-13 22:28N 40°41' W 074°09'0 0.0
2016-Jul-13 21:33N 40°41' W 074°09'0 0.0
2016-Jul-13 20:29N 40°41' W 074°09'0 0.0
2016-Jul-13 19:30N 40°41' W 074°09'0 0.0
2016-Jul-13 18:31N 40°41' W 074°09'0 0.0
2016-Jul-13 17:32N 40°41' W 074°09'0 0.0
2016-Jul-13 16:32N 40°41' W 074°09'0 0.0
2016-Jul-13 15:32N 40°41' W 074°09'0 0.0
2016-Jul-13 14:32N 40°41' W 074°09'0 0.0
2016-Jul-13 13:33N 40°41' W 074°09'0 0.0
2016-Jul-13 12:30N 40°41' W 074°09'0 0.0
2016-Jul-13 11:33N 40°41' W 074°09'0 0.0
2016-Jul-13 10:32N 40°41' W 074°09'0 0.1
2016-Jul-13 09:33N 40°41' W 074°09'4 4.2
2016-Jul-13 08:34N 40°39' W 074°04'10 9.5
2016-Jul-13 07:33N 40°31' W 073°58'1110.8
2016-Jul-13 06:33N 40°26' W 073°46'9 8.4
2016-Jul-13 05:31N 40°21' W 073°36'9 8.8
2016-Jul-13 04:32N 40°16' W 073°27'20 8.6
2016-Jul-13 02:08N 40°05' W 073°04'711.5
2016-Jul-13 01:34N 40°01' W 072°57'  
Track history (hours):
 
Tides and Currents Weather Stations Pressure Air Temp Water Temp Dewpoint Dewpoint Depression Visibility Wind Speed Wind Dir Waves Ship Positions

Zim Mumbai

Last reported at 2016-Jul-19 07:06 UTC. Time now 2016-Jul-25 02:23 UTC.
Position N 31°46' W 079°28'.

Length 195.7 m; beam 32.3 m; draft 11.5 m.

Type: Ship (hazmat cat B). MMSI: 212160000.

Date/timePositionNaut miles runAvg speedWind from/ knotsBaromVisibWave heightAir tempDewpointWater temp
2016-Jul-19 07:06N 31°46' W 079°28'5816.0
2016-Jul-19 03:29N 32°42' W 079°46'156 6.0
2016-Jul-18 01:33N 33°46' W 076°56'3314.9
2016-Jul-17 23:20N 34°09' W 076°27'1515.3
2016-Jul-17 22:21N 34°19' W 076°13'15412.0
2016-Jul-17 09:33N 36°52' W 075°52'1313.1
2016-Jul-17 08:33N 36°58' W 076°06'1111.3
2016-Jul-17 07:33N 36°57' W 076°20'4 4.0
2016-Jul-17 06:29N 36°53' W 076°21'0 0.0
2016-Jul-17 04:18N 36°53' W 076°21'0 0.0
2016-Jul-17 03:31N 36°53' W 076°21'0 0.0
2016-Jul-17 02:08N 36°53' W 076°21'0 0.0
2016-Jul-17 01:23N 36°53' W 076°21'0 0.0
2016-Jul-17 00:33N 36°53' W 076°21'0 0.0
2016-Jul-16 23:28N 36°53' W 076°21'0 0.0
2016-Jul-16 22:31N 36°53' W 076°21'0 0.0
2016-Jul-16 21:33N 36°53' W 076°21'13 6.2
2016-Jul-16 19:33N 36°59' W 076°07'1211.6
2016-Jul-16 18:33N 36°55' W 075°54'14 2.2
2016-Jul-16 12:12N 36°48' W 075°39'0 0.0
2016-Jul-16 11:26N 36°48' W 075°39'0 0.1
2016-Jul-16 09:21N 36°48' W 075°39'7 8.1
2016-Jul-16 08:32N 36°49' W 075°47'1313.2
2016-Jul-16 07:33N 36°57' W 075°59'1615.4
2016-Jul-16 06:33N 37°11' W 076°09'2914.5
2016-Jul-16 04:31N 37°40' W 076°09'1514.6
2016-Jul-16 03:31N 37°55' W 076°10'4615.0
2016-Jul-16 00:27N 38°39' W 076°25'1415.8
2016-Jul-15 23:33N 38°53' W 076°24'1414.4
2016-Jul-15 22:34N 39°08' W 076°24'1110.5
2016-Jul-15 21:33N 39°15' W 076°34'0 0.4
2016-Jul-15 20:29N 39°15' W 076°33'0 0.0
2016-Jul-15 19:28N 39°15' W 076°33'0 0.0
2016-Jul-15 18:32N 39°15' W 076°33'0 0.0
2016-Jul-15 17:32N 39°15' W 076°33'0 0.0
2016-Jul-15 16:32N 39°15' W 076°33'0 0.0
2016-Jul-15 15:32N 39°15' W 076°33'0 0.0
2016-Jul-15 14:28N 39°15' W 076°33'0 0.0
2016-Jul-15 13:28N 39°15' W 076°33'0 0.0
2016-Jul-15 12:33N 39°15' W 076°33'0 0.0
2016-Jul-15 11:33N 39°15' W 076°33'0 0.0
2016-Jul-15 10:31N 39°15' W 076°33'1 0.7
2016-Jul-15 09:33N 39°15' W 076°33'9 8.9
2016-Jul-15 08:33N 39°09' W 076°24'1514.7
2016-Jul-15 07:33N 38°54' W 076°24'1615.9
2016-Jul-15 06:33N 38°38' W 076°25'1615.8
2016-Jul-15 05:32N 38°23' W 076°20'1616.2
2016-Jul-15 04:31N 38°07' W 076°13'6215.1
2016-Jul-15 00:24N 37°05' W 076°06'1213.8
2016-Jul-14 23:33N 36°56' W 075°56'11713.0
2016-Jul-14 14:33N 38°20' W 074°13'1616.3
2016-Jul-14 13:33N 38°36' W 074°07'1716.0
2016-Jul-14 12:31N 38°52' W 074°02'1816.1
2016-Jul-14 11:25N 39°09' W 073°56'1415.4
2016-Jul-14 10:28N 39°24' W 073°54'1415.5
2016-Jul-14 09:34N 39°38' W 073°53'1615.6
2016-Jul-14 08:33N 39°53' W 073°51'3115.5
2016-Jul-14 06:33N 40°24' W 073°49'1211.8
2016-Jul-14 05:33N 40°32' W 074°01'9 8.8
2016-Jul-14 04:33N 40°39' W 074°08'3 2.6
2016-Jul-14 03:32N 40°41' W 074°09'0 0.0
2016-Jul-14 02:26N 40°41' W 074°09'0 0.0
2016-Jul-14 01:32N 40°41' W 074°09'0 0.0
2016-Jul-14 00:29N 40°41' W 074°09'0 0.0
2016-Jul-13 23:31N 40°41' W 074°09'0 0.0
2016-Jul-13 22:28N 40°41' W 074°09'0 0.0
2016-Jul-13 21:33N 40°41' W 074°09'0 0.0
2016-Jul-13 20:29N 40°41' W 074°09'0 0.0
2016-Jul-13 19:30N 40°41' W 074°09'0 0.0
2016-Jul-13 18:31N 40°41' W 074°09'0 0.0
2016-Jul-13 17:32N 40°41' W 074°09'0 0.0
2016-Jul-13 16:32N 40°41' W 074°09'0 0.0
2016-Jul-13 15:32N 40°41' W 074°09'0 0.0
2016-Jul-13 14:32N 40°41' W 074°09'0 0.0
2016-Jul-13 13:33N 40°41' W 074°09'0 0.0
2016-Jul-13 12:30N 40°41' W 074°09'0 0.0
2016-Jul-13 11:33N 40°41' W 074°09'0 0.0
2016-Jul-13 10:32N 40°41' W 074°09'0 0.1
2016-Jul-13 09:33N 40°41' W 074°09'4 4.2
2016-Jul-13 08:34N 40°39' W 074°04'10 9.5
2016-Jul-13 07:33N 40°31' W 073°58'1110.8
2016-Jul-13 06:33N 40°26' W 073°46'9 8.4
2016-Jul-13 05:31N 40°21' W 073°36'9 8.8
2016-Jul-13 04:32N 40°16' W 073°27'20 8.6
2016-Jul-13 02:08N 40°05' W 073°04'711.5
2016-Jul-13 01:34N 40°01' W 072°57'  

Dump ship's entire track history